sensor_id;sensor_type;location;lat;lon;timestamp;P1;durP1;ratioP1;P2;durP2;ratioP2
77123;SDS011;66079;47.646;19.130;2023-05-07T00:02:21;20.73;;;14.85;;
77123;SDS011;66079;47.646;19.130;2023-05-07T00:05:25;20.70;;;15.48;;
77123;SDS011;66079;47.646;19.130;2023-05-07T00:08:28;21.40;;;15.73;;
77123;SDS011;66079;47.646;19.130;2023-05-07T00:11:31;20.27;;;14.13;;
77123;SDS011;66079;47.646;19.130;2023-05-07T00:14:34;20.30;;;15.27;;
77123;SDS011;66079;47.646;19.130;2023-05-07T00:17:37;21.50;;;15.25;;
77123;SDS011;66079;47.646;19.130;2023-05-07T00:20:40;18.77;;;15.27;;
77123;SDS011;66079;47.646;19.130;2023-05-07T00:23:43;18.30;;;14.77;;
77123;SDS011;66079;47.646;19.130;2023-05-07T00:26:45;20.10;;;14.97;;
77123;SDS011;66079;47.646;19.130;2023-05-07T00:29:48;19.65;;;14.18;;
77123;SDS011;66079;47.646;19.130;2023-05-07T00:32:50;22.58;;;16.15;;
77123;SDS011;66079;47.646;19.130;2023-05-07T00:35:53;21.40;;;15.82;;
77123;SDS011;66079;47.646;19.130;2023-05-07T00:38:59;19.70;;;14.67;;
77123;SDS011;66079;47.646;19.130;2023-05-07T00:42:03;22.67;;;15.30;;
77123;SDS011;66079;47.646;19.130;2023-05-07T00:45:06;20.75;;;15.18;;
77123;SDS011;66079;47.646;19.130;2023-05-07T00:48:09;23.27;;;15.27;;
77123;SDS011;66079;47.646;19.130;2023-05-07T00:51:12;18.83;;;15.10;;
77123;SDS011;66079;47.646;19.130;2023-05-07T00:54:15;19.07;;;15.07;;
77123;SDS011;66079;47.646;19.130;2023-05-07T00:57:18;21.47;;;16.07;;
77123;SDS011;66079;47.646;19.130;2023-05-07T01:00:22;20.98;;;14.50;;
77123;SDS011;66079;47.646;19.130;2023-05-07T01:03:24;20.40;;;15.20;;
77123;SDS011;66079;47.646;19.130;2023-05-07T01:06:28;19.45;;;15.27;;
77123;SDS011;66079;47.646;19.130;2023-05-07T01:09:32;21.70;;;15.70;;
77123;SDS011;66079;47.646;19.130;2023-05-07T01:12:37;18.40;;;14.60;;
77123;SDS011;66079;47.646;19.130;2023-05-07T01:15:42;20.40;;;14.10;;
77123;SDS011;66079;47.646;19.130;2023-05-07T01:18:45;21.02;;;15.10;;
77123;SDS011;66079;47.646;19.130;2023-05-07T01:21:51;19.00;;;14.80;;
77123;SDS011;66079;47.646;19.130;2023-05-07T01:24:59;18.77;;;14.60;;
77123;SDS011;66079;47.646;19.130;2023-05-07T01:28:04;19.40;;;14.43;;
77123;SDS011;66079;47.646;19.130;2023-05-07T01:31:10;19.60;;;15.48;;
77123;SDS011;66079;47.646;19.130;2023-05-07T01:34:16;19.00;;;14.57;;
77123;SDS011;66079;47.646;19.130;2023-05-07T01:37:20;19.10;;;14.85;;
77123;SDS011;66079;47.646;19.130;2023-05-07T01:40:24;19.40;;;14.33;;
77123;SDS011;66079;47.646;19.130;2023-05-07T01:43:28;20.40;;;15.90;;
77123;SDS011;66079;47.646;19.130;2023-05-07T01:46:31;20.08;;;15.63;;
77123;SDS011;66079;47.646;19.130;2023-05-07T01:49:35;22.52;;;16.55;;
77123;SDS011;66079;47.646;19.130;2023-05-07T01:52:38;20.27;;;14.85;;
77123;SDS011;66079;47.646;19.130;2023-05-07T01:55:41;19.23;;;14.80;;
77123;SDS011;66079;47.646;19.130;2023-05-07T01:58:47;19.10;;;15.00;;
77123;SDS011;66079;47.646;19.130;2023-05-07T02:01:50;21.48;;;15.48;;
77123;SDS011;66079;47.646;19.130;2023-05-07T02:04:53;23.63;;;15.43;;
77123;SDS011;66079;47.646;19.130;2023-05-07T02:07:57;21.10;;;15.18;;
77123;SDS011;66079;47.646;19.130;2023-05-07T02:11:02;20.83;;;14.80;;
77123;SDS011;66079;47.646;19.130;2023-05-07T02:14:05;21.17;;;15.70;;
77123;SDS011;66079;47.646;19.130;2023-05-07T02:17:07;19.95;;;14.80;;
77123;SDS011;66079;47.646;19.130;2023-05-07T02:20:11;21.90;;;16.08;;
77123;SDS011;66079;47.646;19.130;2023-05-07T02:23:16;20.85;;;15.20;;
77123;SDS011;66079;47.646;19.130;2023-05-07T02:26:19;20.47;;;15.83;;
77123;SDS011;66079;47.646;19.130;2023-05-07T02:29:22;19.33;;;14.83;;
77123;SDS011;66079;47.646;19.130;2023-05-07T02:32:25;20.70;;;15.07;;
77123;SDS011;66079;47.646;19.130;2023-05-07T02:35:28;19.55;;;15.02;;
77123;SDS011;66079;47.646;19.130;2023-05-07T02:38:32;16.13;;;12.77;;
77123;SDS011;66079;47.646;19.130;2023-05-07T02:41:35;15.53;;;13.17;;
77123;SDS011;66079;47.646;19.130;2023-05-07T02:44:37;16.27;;;12.87;;
77123;SDS011;66079;47.646;19.130;2023-05-07T02:47:40;16.52;;;13.27;;
77123;SDS011;66079;47.646;19.130;2023-05-07T02:50:42;17.10;;;13.75;;
77123;SDS011;66079;47.646;19.130;2023-05-07T02:53:47;17.80;;;13.73;;
77123;SDS011;66079;47.646;19.130;2023-05-07T02:56:50;18.53;;;13.77;;
77123;SDS011;66079;47.646;19.130;2023-05-07T02:59:53;20.50;;;14.53;;
77123;SDS011;66079;47.646;19.130;2023-05-07T03:02:56;20.73;;;15.23;;
77123;SDS011;66079;47.646;19.130;2023-05-07T03:05:59;20.15;;;14.93;;
77123;SDS011;66079;47.646;19.130;2023-05-07T03:09:01;20.45;;;14.05;;
77123;SDS011;66079;47.646;19.130;2023-05-07T03:12:05;20.13;;;14.47;;
77123;SDS011;66079;47.646;19.130;2023-05-07T03:15:08;20.97;;;14.23;;
77123;SDS011;66079;47.646;19.130;2023-05-07T03:18:11;18.63;;;14.25;;
77123;SDS011;66079;47.646;19.130;2023-05-07T03:21:14;17.67;;;14.00;;
77123;SDS011;66079;47.646;19.130;2023-05-07T03:24:16;16.52;;;13.40;;
77123;SDS011;66079;47.646;19.130;2023-05-07T03:27:19;18.90;;;13.17;;
77123;SDS011;66079;47.646;19.130;2023-05-07T03:30:22;19.57;;;13.80;;
77123;SDS011;66079;47.646;19.130;2023-05-07T03:33:25;19.55;;;13.93;;
77123;SDS011;66079;47.646;19.130;2023-05-07T03:36:29;17.80;;;13.90;;
77123;SDS011;66079;47.646;19.130;2023-05-07T03:39:32;19.42;;;14.63;;
77123;SDS011;66079;47.646;19.130;2023-05-07T03:42:36;17.03;;;13.23;;
77123;SDS011;66079;47.646;19.130;2023-05-07T03:45:38;17.33;;;14.27;;
77123;SDS011;66079;47.646;19.130;2023-05-07T03:48:55;19.88;;;14.38;;
77123;SDS011;66079;47.646;19.130;2023-05-07T03:51:58;21.55;;;15.32;;
77123;SDS011;66079;47.646;19.130;2023-05-07T03:55:01;20.95;;;15.55;;
77123;SDS011;66079;47.646;19.130;2023-05-07T03:58:06;21.83;;;15.67;;
77123;SDS011;66079;47.646;19.130;2023-05-07T04:01:09;19.20;;;15.00;;
77123;SDS011;66079;47.646;19.130;2023-05-07T04:04:12;21.02;;;15.40;;
77123;SDS011;66079;47.646;19.130;2023-05-07T04:07:15;22.80;;;15.90;;
77123;SDS011;66079;47.646;19.130;2023-05-07T04:10:23;24.83;;;15.82;;
77123;SDS011;66079;47.646;19.130;2023-05-07T04:13:29;20.70;;;15.23;;
77123;SDS011;66079;47.646;19.130;2023-05-07T04:16:34;21.57;;;16.17;;
77123;SDS011;66079;47.646;19.130;2023-05-07T04:19:37;20.45;;;15.70;;
77123;SDS011;66079;47.646;19.130;2023-05-07T04:22:40;21.30;;;15.75;;
77123;SDS011;66079;47.646;19.130;2023-05-07T04:25:44;22.50;;;14.88;;
77123;SDS011;66079;47.646;19.130;2023-05-07T04:29:00;19.40;;;14.50;;
77123;SDS011;66079;47.646;19.130;2023-05-07T04:32:08;19.43;;;14.77;;
77123;SDS011;66079;47.646;19.130;2023-05-07T04:35:14;21.27;;;15.80;;
77123;SDS011;66079;47.646;19.130;2023-05-07T04:38:17;20.52;;;15.05;;
77123;SDS011;66079;47.646;19.130;2023-05-07T04:41:22;22.48;;;15.63;;
77123;SDS011;66079;47.646;19.130;2023-05-07T04:44:25;23.40;;;16.10;;
77123;SDS011;66079;47.646;19.130;2023-05-07T04:47:29;21.30;;;15.73;;
77123;SDS011;66079;47.646;19.130;2023-05-07T04:50:32;19.98;;;14.75;;
77123;SDS011;66079;47.646;19.130;2023-05-07T04:53:37;19.30;;;14.45;;
77123;SDS011;66079;47.646;19.130;2023-05-07T04:56:40;19.27;;;13.85;;
77123;SDS011;66079;47.646;19.130;2023-05-07T04:59:43;21.57;;;13.50;;
77123;SDS011;66079;47.646;19.130;2023-05-07T05:02:46;16.57;;;12.73;;
77123;SDS011;66079;47.646;19.130;2023-05-07T05:05:53;16.17;;;12.40;;
77123;SDS011;66079;47.646;19.130;2023-05-07T05:08:57;14.57;;;10.52;;
77123;SDS011;66079;47.646;19.130;2023-05-07T05:12:02;14.18;;;10.73;;
77123;SDS011;66079;47.646;19.130;2023-05-07T05:15:05;14.33;;;10.53;;
77123;SDS011;66079;47.646;19.130;2023-05-07T05:18:09;14.87;;;11.03;;
77123;SDS011;66079;47.646;19.130;2023-05-07T05:21:12;14.85;;;9.93;;
77123;SDS011;66079;47.646;19.130;2023-05-07T05:24:17;13.90;;;10.32;;
77123;SDS011;66079;47.646;19.130;2023-05-07T05:27:22;12.85;;;9.18;;
77123;SDS011;66079;47.646;19.130;2023-05-07T05:30:26;12.50;;;9.97;;
77123;SDS011;66079;47.646;19.130;2023-05-07T05:33:28;12.30;;;9.03;;
77123;SDS011;66079;47.646;19.130;2023-05-07T05:36:36;12.63;;;9.80;;
77123;SDS011;66079;47.646;19.130;2023-05-07T05:39:39;11.68;;;9.30;;
77123;SDS011;66079;47.646;19.130;2023-05-07T05:42:44;12.05;;;8.90;;
77123;SDS011;66079;47.646;19.130;2023-05-07T05:45:47;10.07;;;8.47;;
77123;SDS011;66079;47.646;19.130;2023-05-07T05:48:50;12.60;;;8.60;;
77123;SDS011;66079;47.646;19.130;2023-05-07T05:51:52;11.25;;;8.45;;
77123;SDS011;66079;47.646;19.130;2023-05-07T05:54:56;10.05;;;8.02;;
77123;SDS011;66079;47.646;19.130;2023-05-07T05:57:59;11.25;;;8.95;;
77123;SDS011;66079;47.646;19.130;2023-05-07T06:01:05;10.80;;;8.20;;
77123;SDS011;66079;47.646;19.130;2023-05-07T06:04:10;10.80;;;8.60;;
77123;SDS011;66079;47.646;19.130;2023-05-07T06:07:13;12.82;;;8.93;;
77123;SDS011;66079;47.646;19.130;2023-05-07T06:10:16;11.48;;;8.30;;
77123;SDS011;66079;47.646;19.130;2023-05-07T06:13:20;11.50;;;9.15;;
77123;SDS011;66079;47.646;19.130;2023-05-07T06:16:24;12.17;;;9.40;;
77123;SDS011;66079;47.646;19.130;2023-05-07T06:19:29;17.03;;;10.40;;
77123;SDS011;66079;47.646;19.130;2023-05-07T06:22:33;11.48;;;9.55;;
77123;SDS011;66079;47.646;19.130;2023-05-07T06:25:35;11.60;;;8.68;;
77123;SDS011;66079;47.646;19.130;2023-05-07T06:28:39;10.60;;;8.25;;
77123;SDS011;66079;47.646;19.130;2023-05-07T06:31:45;9.77;;;6.90;;
77123;SDS011;66079;47.646;19.130;2023-05-07T06:34:48;7.87;;;6.50;;
77123;SDS011;66079;47.646;19.130;2023-05-07T06:37:52;9.50;;;6.85;;
77123;SDS011;66079;47.646;19.130;2023-05-07T06:40:58;8.13;;;6.05;;
77123;SDS011;66079;47.646;19.130;2023-05-07T06:44:01;9.63;;;6.28;;
77123;SDS011;66079;47.646;19.130;2023-05-07T06:47:25;8.77;;;6.20;;
77123;SDS011;66079;47.646;19.130;2023-05-07T06:50:29;6.90;;;6.03;;
77123;SDS011;66079;47.646;19.130;2023-05-07T06:53:32;7.47;;;5.93;;
77123;SDS011;66079;47.646;19.130;2023-05-07T06:56:37;9.95;;;6.90;;
77123;SDS011;66079;47.646;19.130;2023-05-07T06:59:40;8.63;;;6.80;;
77123;SDS011;66079;47.646;19.130;2023-05-07T07:02:43;8.20;;;5.97;;
77123;SDS011;66079;47.646;19.130;2023-05-07T07:05:51;5.13;;;4.63;;
77123;SDS011;66079;47.646;19.130;2023-05-07T07:08:55;5.70;;;4.20;;
77123;SDS011;66079;47.646;19.130;2023-05-07T07:11:57;6.32;;;4.45;;
77123;SDS011;66079;47.646;19.130;2023-05-07T07:15:00;4.53;;;4.03;;
77123;SDS011;66079;47.646;19.130;2023-05-07T07:18:04;6.10;;;4.37;;
77123;SDS011;66079;47.646;19.130;2023-05-07T07:21:07;6.10;;;4.50;;
77123;SDS011;66079;47.646;19.130;2023-05-07T07:24:10;5.35;;;3.80;;
77123;SDS011;66079;47.646;19.130;2023-05-07T07:27:14;5.97;;;3.45;;
77123;SDS011;66079;47.646;19.130;2023-05-07T07:30:17;3.25;;;2.95;;
77123;SDS011;66079;47.646;19.130;2023-05-07T07:33:23;3.23;;;2.83;;
77123;SDS011;66079;47.646;19.130;2023-05-07T07:36:26;4.20;;;2.70;;
77123;SDS011;66079;47.646;19.130;2023-05-07T07:39:44;5.20;;;3.17;;
77123;SDS011;66079;47.646;19.130;2023-05-07T07:42:48;3.85;;;2.88;;
77123;SDS011;66079;47.646;19.130;2023-05-07T07:45:51;2.72;;;2.33;;
77123;SDS011;66079;47.646;19.130;2023-05-07T07:48:54;2.47;;;2.00;;
77123;SDS011;66079;47.646;19.130;2023-05-07T07:51:57;1.97;;;1.77;;
77123;SDS011;66079;47.646;19.130;2023-05-07T07:55:02;2.53;;;2.33;;
77123;SDS011;66079;47.646;19.130;2023-05-07T07:58:05;2.28;;;1.98;;
77123;SDS011;66079;47.646;19.130;2023-05-07T08:01:09;3.25;;;1.83;;
77123;SDS011;66079;47.646;19.130;2023-05-07T08:04:12;2.70;;;1.60;;
77123;SDS011;66079;47.646;19.130;2023-05-07T08:07:16;2.87;;;1.60;;
77123;SDS011;66079;47.646;19.130;2023-05-07T08:10:23;1.77;;;1.42;;
77123;SDS011;66079;47.646;19.130;2023-05-07T08:13:32;3.20;;;1.60;;
77123;SDS011;66079;47.646;19.130;2023-05-07T08:16:35;1.73;;;1.60;;
77123;SDS011;66079;47.646;19.130;2023-05-07T08:19:37;1.47;;;1.37;;
77123;SDS011;66079;47.646;19.130;2023-05-07T08:22:43;1.50;;;1.40;;
77123;SDS011;66079;47.646;19.130;2023-05-07T08:25:45;2.38;;;1.85;;
77123;SDS011;66079;47.646;19.130;2023-05-07T08:28:50;2.63;;;1.98;;
77123;SDS011;66079;47.646;19.130;2023-05-07T08:31:53;2.05;;;1.60;;
77123;SDS011;66079;47.646;19.130;2023-05-07T08:34:56;2.00;;;1.40;;
77123;SDS011;66079;47.646;19.130;2023-05-07T08:37:59;1.60;;;1.50;;
77123;SDS011;66079;47.646;19.130;2023-05-07T08:41:02;2.83;;;1.50;;
77123;SDS011;66079;47.646;19.130;2023-05-07T08:44:06;3.40;;;1.80;;
77123;SDS011;66079;47.646;19.130;2023-05-07T08:47:14;3.70;;;1.67;;
77123;SDS011;66079;47.646;19.130;2023-05-07T08:50:20;1.80;;;1.70;;
77123;SDS011;66079;47.646;19.130;2023-05-07T08:53:23;2.00;;;1.47;;
77123;SDS011;66079;47.646;19.130;2023-05-07T08:56:27;2.85;;;1.60;;
77123;SDS011;66079;47.646;19.130;2023-05-07T08:59:30;1.50;;;1.40;;
77123;SDS011;66079;47.646;19.130;2023-05-07T09:02:34;2.42;;;1.58;;
77123;SDS011;66079;47.646;19.130;2023-05-07T09:05:39;2.40;;;1.40;;
77123;SDS011;66079;47.646;19.130;2023-05-07T09:08:53;1.77;;;1.50;;
77123;SDS011;66079;47.646;19.130;2023-05-07T09:12:00;1.77;;;1.33;;
77123;SDS011;66079;47.646;19.130;2023-05-07T09:15:07;1.92;;;1.50;;
77123;SDS011;66079;47.646;19.130;2023-05-07T09:18:11;1.88;;;1.50;;
77123;SDS011;66079;47.646;19.130;2023-05-07T09:21:19;2.00;;;1.40;;
77123;SDS011;66079;47.646;19.130;2023-05-07T09:24:24;1.60;;;1.40;;
77123;SDS011;66079;47.646;19.130;2023-05-07T09:27:28;1.88;;;1.60;;
77123;SDS011;66079;47.646;19.130;2023-05-07T09:30:33;1.70;;;1.60;;
77123;SDS011;66079;47.646;19.130;2023-05-07T09:33:38;2.53;;;1.60;;
77123;SDS011;66079;47.646;19.130;2023-05-07T09:36:43;2.17;;;1.90;;
77123;SDS011;66079;47.646;19.130;2023-05-07T09:39:49;2.37;;;1.70;;
77123;SDS011;66079;47.646;19.130;2023-05-07T09:42:56;1.45;;;1.35;;
77123;SDS011;66079;47.646;19.130;2023-05-07T09:46:02;3.45;;;1.80;;
77123;SDS011;66079;47.646;19.130;2023-05-07T09:49:20;2.92;;;2.05;;
77123;SDS011;66079;47.646;19.130;2023-05-07T09:52:27;1.60;;;1.50;;
77123;SDS011;66079;47.646;19.130;2023-05-07T09:55:37;1.80;;;1.50;;
77123;SDS011;66079;47.646;19.130;2023-05-07T09:58:40;1.92;;;1.73;;
77123;SDS011;66079;47.646;19.130;2023-05-07T10:01:44;1.50;;;1.40;;
77123;SDS011;66079;47.646;19.130;2023-05-07T10:04:49;2.03;;;1.80;;
77123;SDS011;66079;47.646;19.130;2023-05-07T10:07:57;1.73;;;1.63;;
77123;SDS011;66079;47.646;19.130;2023-05-07T10:11:01;5.00;;;1.80;;
77123;SDS011;66079;47.646;19.130;2023-05-07T10:14:06;2.60;;;1.60;;
77123;SDS011;66079;47.646;19.130;2023-05-07T10:17:10;1.73;;;1.63;;
77123;SDS011;66079;47.646;19.130;2023-05-07T10:20:17;3.72;;;1.90;;
77123;SDS011;66079;47.646;19.130;2023-05-07T10:23:22;2.00;;;1.80;;
77123;SDS011;66079;47.646;19.130;2023-05-07T10:26:30;4.00;;;2.10;;
77123;SDS011;66079;47.646;19.130;2023-05-07T10:29:45;2.00;;;1.90;;
77123;SDS011;66079;47.646;19.130;2023-05-07T10:32:52;4.38;;;2.20;;
77123;SDS011;66079;47.646;19.130;2023-05-07T10:36:03;2.42;;;2.17;;
77123;SDS011;66079;47.646;19.130;2023-05-07T10:39:08;3.03;;;2.10;;
77123;SDS011;66079;47.646;19.130;2023-05-07T10:42:14;2.50;;;2.30;;
77123;SDS011;66079;47.646;19.130;2023-05-07T10:45:23;3.17;;;2.50;;
77123;SDS011;66079;47.646;19.130;2023-05-07T10:48:28;2.55;;;2.35;;
77123;SDS011;66079;47.646;19.130;2023-05-07T10:51:41;3.15;;;2.40;;
77123;SDS011;66079;47.646;19.130;2023-05-07T10:58:26;3.00;;;2.70;;
77123;SDS011;66079;47.646;19.130;2023-05-07T11:02:04;2.80;;;2.60;;
77123;SDS011;66079;47.646;19.130;2023-05-07T11:05:19;3.83;;;3.03;;
77123;SDS011;66079;47.646;19.130;2023-05-07T11:15:39;5.30;;;2.87;;
77123;SDS011;66079;47.646;19.130;2023-05-07T11:19:05;4.68;;;2.63;;
77123;SDS011;66079;47.646;19.130;2023-05-07T11:25:58;3.20;;;2.85;;
77123;SDS011;66079;47.646;19.130;2023-05-07T11:29:02;3.20;;;2.90;;
77123;SDS011;66079;47.646;19.130;2023-05-07T11:32:04;4.43;;;2.80;;
77123;SDS011;66079;47.646;19.130;2023-05-07T11:35:22;2.28;;;2.03;;
77123;SDS011;66079;47.646;19.130;2023-05-07T11:38:26;3.42;;;2.10;;
77123;SDS011;66079;47.646;19.130;2023-05-07T11:41:35;2.40;;;2.20;;
77123;SDS011;66079;47.646;19.130;2023-05-07T11:44:44;2.40;;;2.20;;
77123;SDS011;66079;47.646;19.130;2023-05-07T11:47:48;2.90;;;2.43;;
77123;SDS011;66079;47.646;19.130;2023-05-07T11:50:59;3.55;;;2.40;;
77123;SDS011;66079;47.646;19.130;2023-05-07T11:54:04;5.22;;;2.60;;
77123;SDS011;66079;47.646;19.130;2023-05-07T11:57:14;2.80;;;2.50;;
77123;SDS011;66079;47.646;19.130;2023-05-07T12:00:17;2.77;;;2.47;;
77123;SDS011;66079;47.646;19.130;2023-05-07T12:03:20;4.03;;;2.60;;
77123;SDS011;66079;47.646;19.130;2023-05-07T12:06:23;5.30;;;2.83;;
77123;SDS011;66079;47.646;19.130;2023-05-07T12:09:26;4.32;;;2.75;;
77123;SDS011;66079;47.646;19.130;2023-05-07T12:12:28;3.92;;;3.20;;
77123;SDS011;66079;47.646;19.130;2023-05-07T12:15:31;3.40;;;3.10;;
77123;SDS011;66079;47.646;19.130;2023-05-07T12:18:37;6.20;;;3.30;;
77123;SDS011;66079;47.646;19.130;2023-05-07T12:21:40;3.67;;;2.92;;
77123;SDS011;66079;47.646;19.130;2023-05-07T12:24:44;2.85;;;2.65;;
77123;SDS011;66079;47.646;19.130;2023-05-07T12:27:52;3.90;;;2.72;;
77123;SDS011;66079;47.646;19.130;2023-05-07T12:30:55;3.23;;;2.30;;
77123;SDS011;66079;47.646;19.130;2023-05-07T12:33:58;3.00;;;2.43;;
77123;SDS011;66079;47.646;19.130;2023-05-07T12:37:01;2.00;;;1.80;;
77123;SDS011;66079;47.646;19.130;2023-05-07T12:43:19;1.98;;;1.77;;
77123;SDS011;66079;47.646;19.130;2023-05-07T12:46:23;2.30;;;2.00;;
77123;SDS011;66079;47.646;19.130;2023-05-07T12:49:25;2.20;;;2.00;;
77123;SDS011;66079;47.646;19.130;2023-05-07T12:52:28;2.38;;;2.17;;
77123;SDS011;66079;47.646;19.130;2023-05-07T12:55:31;2.72;;;2.50;;
77123;SDS011;66079;47.646;19.130;2023-05-07T12:58:36;2.80;;;2.60;;
77123;SDS011;66079;47.646;19.130;2023-05-07T13:01:39;2.33;;;2.03;;
77123;SDS011;66079;47.646;19.130;2023-05-07T13:04:41;2.87;;;2.43;;
77123;SDS011;66079;47.646;19.130;2023-05-07T13:07:52;2.90;;;2.60;;
77123;SDS011;66079;47.646;19.130;2023-05-07T13:10:59;3.92;;;2.60;;
77123;SDS011;66079;47.646;19.130;2023-05-07T13:14:06;2.60;;;2.40;;
77123;SDS011;66079;47.646;19.130;2023-05-07T13:17:08;3.40;;;3.10;;
77123;SDS011;66079;47.646;19.130;2023-05-07T13:20:11;3.20;;;2.90;;
77123;SDS011;66079;47.646;19.130;2023-05-07T13:23:14;3.95;;;2.72;;
77123;SDS011;66079;47.646;19.130;2023-05-07T13:26:17;4.60;;;2.70;;
77123;SDS011;66079;47.646;19.130;2023-05-07T13:29:26;3.67;;;2.50;;
77123;SDS011;66079;47.646;19.130;2023-05-07T13:32:32;3.17;;;2.60;;
77123;SDS011;66079;47.646;19.130;2023-05-07T13:35:35;2.70;;;2.50;;
77123;SDS011;66079;47.646;19.130;2023-05-07T13:38:38;7.30;;;2.40;;
77123;SDS011;66079;47.646;19.130;2023-05-07T13:41:41;2.97;;;2.78;;
77123;SDS011;66079;47.646;19.130;2023-05-07T13:44:44;3.03;;;2.65;;
77123;SDS011;66079;47.646;19.130;2023-05-07T13:47:47;4.10;;;2.27;;
77123;SDS011;66079;47.646;19.130;2023-05-07T13:50:51;3.53;;;2.50;;
77123;SDS011;66079;47.646;19.130;2023-05-07T13:53:54;2.92;;;2.53;;
77123;SDS011;66079;47.646;19.130;2023-05-07T13:56:57;3.08;;;2.40;;
77123;SDS011;66079;47.646;19.130;2023-05-07T13:59:59;2.50;;;2.28;;
77123;SDS011;66079;47.646;19.130;2023-05-07T14:03:02;5.07;;;2.63;;
77123;SDS011;66079;47.646;19.130;2023-05-07T14:06:06;2.90;;;2.70;;
77123;SDS011;66079;47.646;19.130;2023-05-07T14:09:09;4.32;;;2.58;;
77123;SDS011;66079;47.646;19.130;2023-05-07T14:12:14;2.80;;;2.60;;
77123;SDS011;66079;47.646;19.130;2023-05-07T14:15:16;2.97;;;2.60;;
77123;SDS011;66079;47.646;19.130;2023-05-07T14:18:19;3.13;;;2.37;;
77123;SDS011;66079;47.646;19.130;2023-05-07T14:21:21;2.70;;;2.40;;
77123;SDS011;66079;47.646;19.130;2023-05-07T14:24:24;2.67;;;2.30;;
77123;SDS011;66079;47.646;19.130;2023-05-07T14:27:39;2.50;;;2.30;;
77123;SDS011;66079;47.646;19.130;2023-05-07T14:30:42;3.25;;;2.40;;
77123;SDS011;66079;47.646;19.130;2023-05-07T14:33:45;3.43;;;2.80;;
77123;SDS011;66079;47.646;19.130;2023-05-07T14:36:48;3.03;;;2.60;;
77123;SDS011;66079;47.646;19.130;2023-05-07T14:39:51;3.00;;;2.70;;
77123;SDS011;66079;47.646;19.130;2023-05-07T14:42:53;3.55;;;2.90;;
77123;SDS011;66079;47.646;19.130;2023-05-07T14:45:57;3.95;;;2.97;;
77123;SDS011;66079;47.646;19.130;2023-05-07T14:49:01;3.50;;;2.40;;
77123;SDS011;66079;47.646;19.130;2023-05-07T14:52:04;3.50;;;2.63;;
77123;SDS011;66079;47.646;19.130;2023-05-07T14:55:08;3.05;;;2.75;;
77123;SDS011;66079;47.646;19.130;2023-05-07T14:58:11;3.75;;;2.88;;
77123;SDS011;66079;47.646;19.130;2023-05-07T15:01:14;3.30;;;3.00;;
77123;SDS011;66079;47.646;19.130;2023-05-07T15:04:17;3.50;;;3.20;;
77123;SDS011;66079;47.646;19.130;2023-05-07T15:07:20;3.67;;;2.83;;
77123;SDS011;66079;47.646;19.130;2023-05-07T15:10:22;4.78;;;2.95;;
77123;SDS011;66079;47.646;19.130;2023-05-07T15:13:25;3.33;;;2.88;;
77123;SDS011;66079;47.646;19.130;2023-05-07T15:16:27;2.83;;;2.60;;
77123;SDS011;66079;47.646;19.130;2023-05-07T15:19:30;2.90;;;2.70;;
77123;SDS011;66079;47.646;19.130;2023-05-07T15:22:32;3.30;;;3.00;;
77123;SDS011;66079;47.646;19.130;2023-05-07T15:25:35;4.82;;;2.50;;
77123;SDS011;66079;47.646;19.130;2023-05-07T15:28:38;4.53;;;2.60;;
77123;SDS011;66079;47.646;19.130;2023-05-07T15:31:41;3.83;;;2.78;;
77123;SDS011;66079;47.646;19.130;2023-05-07T15:34:44;4.30;;;2.70;;
77123;SDS011;66079;47.646;19.130;2023-05-07T15:37:48;4.73;;;2.90;;
77123;SDS011;66079;47.646;19.130;2023-05-07T15:40:54;3.20;;;2.90;;
77123;SDS011;66079;47.646;19.130;2023-05-07T15:43:57;3.72;;;2.90;;
77123;SDS011;66079;47.646;19.130;2023-05-07T15:47:00;4.88;;;3.08;;
77123;SDS011;66079;47.646;19.130;2023-05-07T15:50:03;4.57;;;2.90;;
77123;SDS011;66079;47.646;19.130;2023-05-07T15:53:06;2.90;;;2.60;;
77123;SDS011;66079;47.646;19.130;2023-05-07T15:56:09;2.90;;;2.60;;
77123;SDS011;66079;47.646;19.130;2023-05-07T15:59:12;4.43;;;3.00;;
77123;SDS011;66079;47.646;19.130;2023-05-07T16:02:17;4.18;;;3.00;;
77123;SDS011;66079;47.646;19.130;2023-05-07T16:05:20;2.73;;;2.50;;
77123;SDS011;66079;47.646;19.130;2023-05-07T16:08:23;4.23;;;2.47;;
77123;SDS011;66079;47.646;19.130;2023-05-07T16:11:27;2.67;;;2.47;;
77123;SDS011;66079;47.646;19.130;2023-05-07T16:14:31;4.63;;;2.70;;
77123;SDS011;66079;47.646;19.130;2023-05-07T16:17:34;3.92;;;2.45;;
77123;SDS011;66079;47.646;19.130;2023-05-07T16:20:36;3.17;;;2.50;;
77123;SDS011;66079;47.646;19.130;2023-05-07T16:23:39;2.87;;;2.40;;
77123;SDS011;66079;47.646;19.130;2023-05-07T16:26:42;3.13;;;2.20;;
77123;SDS011;66079;47.646;19.130;2023-05-07T16:29:44;3.58;;;2.10;;
77123;SDS011;66079;47.646;19.130;2023-05-07T16:32:47;2.42;;;2.20;;
77123;SDS011;66079;47.646;19.130;2023-05-07T16:35:53;3.10;;;2.00;;
77123;SDS011;66079;47.646;19.130;2023-05-07T16:38:56;3.70;;;2.17;;
77123;SDS011;66079;47.646;19.130;2023-05-07T16:41:58;2.75;;;1.90;;
77123;SDS011;66079;47.646;19.130;2023-05-07T16:45:01;4.50;;;1.80;;
77123;SDS011;66079;47.646;19.130;2023-05-07T16:48:05;2.90;;;1.80;;
77123;SDS011;66079;47.646;19.130;2023-05-07T16:51:09;6.10;;;2.00;;
77123;SDS011;66079;47.646;19.130;2023-05-07T16:54:12;1.97;;;1.80;;
77123;SDS011;66079;47.646;19.130;2023-05-07T16:57:15;2.13;;;1.77;;
77123;SDS011;66079;47.646;19.130;2023-05-07T17:00:17;2.00;;;1.80;;
77123;SDS011;66079;47.646;19.130;2023-05-07T17:03:20;2.42;;;2.10;;
77123;SDS011;66079;47.646;19.130;2023-05-07T17:06:23;3.00;;;1.70;;
77123;SDS011;66079;47.646;19.130;2023-05-07T17:09:26;1.90;;;1.70;;
77123;SDS011;66079;47.646;19.130;2023-05-07T17:12:28;3.10;;;1.73;;
77123;SDS011;66079;47.646;19.130;2023-05-07T17:15:32;2.15;;;1.58;;
77123;SDS011;66079;47.646;19.130;2023-05-07T17:18:35;2.50;;;2.00;;
77123;SDS011;66079;47.646;19.130;2023-05-07T17:21:37;2.57;;;1.70;;
77123;SDS011;66079;47.646;19.130;2023-05-07T17:24:40;3.33;;;1.93;;
77123;SDS011;66079;47.646;19.130;2023-05-07T17:27:43;3.08;;;1.80;;
77123;SDS011;66079;47.646;19.130;2023-05-07T17:30:45;1.67;;;1.58;;
77123;SDS011;66079;47.646;19.130;2023-05-07T17:33:49;2.25;;;1.80;;
77123;SDS011;66079;47.646;19.130;2023-05-07T17:36:52;2.07;;;1.60;;
77123;SDS011;66079;47.646;19.130;2023-05-07T17:39:55;1.67;;;1.57;;
77123;SDS011;66079;47.646;19.130;2023-05-07T17:42:58;2.30;;;1.60;;
77123;SDS011;66079;47.646;19.130;2023-05-07T17:46:01;3.55;;;2.22;;
77123;SDS011;66079;47.646;19.130;2023-05-07T17:49:04;3.75;;;1.80;;
77123;SDS011;66079;47.646;19.130;2023-05-07T17:52:07;3.00;;;1.77;;
77123;SDS011;66079;47.646;19.130;2023-05-07T17:55:10;1.83;;;1.70;;
77123;SDS011;66079;47.646;19.130;2023-05-07T17:58:13;1.85;;;1.65;;
77123;SDS011;66079;47.646;19.130;2023-05-07T18:01:16;2.22;;;1.63;;
77123;SDS011;66079;47.646;19.130;2023-05-07T18:04:18;3.00;;;1.80;;
77123;SDS011;66079;47.646;19.130;2023-05-07T18:07:23;2.97;;;2.00;;
77123;SDS011;66079;47.646;19.130;2023-05-07T18:10:25;2.90;;;1.53;;
77123;SDS011;66079;47.646;19.130;2023-05-07T18:13:28;1.95;;;1.73;;
77123;SDS011;66079;47.646;19.130;2023-05-07T18:16:30;2.42;;;2.00;;
77123;SDS011;66079;47.646;19.130;2023-05-07T18:19:33;2.60;;;2.00;;
77123;SDS011;66079;47.646;19.130;2023-05-07T18:22:38;2.67;;;2.10;;